createdAt,value
2023-02-11T00:02:01.588Z,-0.56
2023-02-11T00:04:37.137Z,-0.62
2023-02-11T00:07:11.919Z,-0.66
2023-02-11T00:09:45.183Z,-0.68
2023-02-11T00:12:19.732Z,-0.69
2023-02-11T00:14:52.414Z,-0.71
2023-02-11T00:17:24.915Z,-0.77
2023-02-11T00:19:57.489Z,-0.84
2023-02-11T00:22:30.022Z,-0.86
2023-02-11T00:25:02.579Z,-0.88
2023-02-11T00:27:35.152Z,-0.93
2023-02-11T00:30:09.509Z,-0.98
2023-02-11T00:32:45.357Z,-1.01
2023-02-11T00:35:18.015Z,-1.03
2023-02-11T00:37:50.494Z,-1.06
2023-02-11T00:40:23.675Z,-1.11
2023-02-11T00:42:56.260Z,-1.11
2023-02-11T00:45:36.790Z,-1.14
2023-02-11T00:48:12.429Z,-1.16
2023-02-11T00:50:45.272Z,-1.18
2023-02-11T00:53:17.836Z,-1.19
2023-02-11T00:55:51.029Z,-1.21
2023-02-11T00:58:23.862Z,-1.25
2023-02-11T01:00:57.854Z,-1.27
2023-02-11T01:03:35.148Z,-1.28
2023-02-11T01:06:09.245Z,-1.31
2023-02-11T01:08:43.495Z,-1.32
2023-02-11T01:11:18.364Z,-1.34
2023-02-11T01:13:52.793Z,-1.36
2023-02-11T01:16:25.391Z,-1.37
2023-02-11T01:18:58.962Z,-1.35
2023-02-11T01:21:31.604Z,-1.34
2023-02-11T01:24:07.459Z,-1.30
2023-02-11T01:26:41.806Z,-1.29
2023-02-11T01:29:15.086Z,-1.28
2023-02-11T01:31:47.601Z,-1.28
2023-02-11T01:34:20.189Z,-1.28
2023-02-11T01:36:52.709Z,-1.27
2023-02-11T01:39:25.156Z,-1.25
2023-02-11T01:41:59.016Z,-1.24
2023-02-11T01:44:35.343Z,-1.25
2023-02-11T01:47:08.285Z,-1.24
2023-02-11T01:49:44.042Z,-1.23
2023-02-11T01:52:19.768Z,-1.24
2023-02-11T01:55:12.810Z,-1.21
2023-02-11T01:57:50.062Z,-1.20
2023-02-11T02:00:26.404Z,-1.19
2023-02-11T02:03:03.931Z,-1.19
2023-02-11T02:05:41.631Z,-1.16
2023-02-11T02:08:20.633Z,-1.15
2023-02-11T02:11:00.593Z,-1.15
2023-02-11T02:13:36.061Z,-1.18
2023-02-11T02:16:13.800Z,-1.19
2023-02-11T02:18:57.534Z,-1.20
2023-02-11T02:22:02.689Z,-1.18
2023-02-11T02:24:50.771Z,-1.18
2023-02-11T02:27:47.334Z,-1.17
2023-02-11T02:30:56.553Z,-1.16
2023-02-11T02:33:54.462Z,-1.17
2023-02-11T02:36:35.876Z,-1.15
2023-02-11T02:39:13.363Z,-1.14
2023-02-11T02:41:47.512Z,-1.11
2023-02-11T02:44:21.321Z,-1.12
2023-02-11T02:46:57.033Z,-1.10
2023-02-11T02:49:29.511Z,-1.11
2023-02-11T02:52:13.704Z,-1.11
2023-02-11T02:55:08.803Z,-1.13
2023-02-11T02:58:00.983Z,-1.13
2023-02-11T03:00:44.362Z,-1.15
2023-02-11T03:03:35.787Z,-1.17
2023-02-11T03:06:14.356Z,-1.19
2023-02-11T03:08:58.358Z,-1.19
2023-02-11T03:11:32.042Z,-1.17
2023-02-11T03:14:09.571Z,-1.15
2023-02-11T03:16:44.786Z,-1.15
2023-02-11T03:19:21.647Z,-1.14
2023-02-11T03:21:54.761Z,-1.16
2023-02-11T03:24:32.324Z,-1.16
2023-02-11T03:27:12.270Z,-1.15
2023-02-11T03:29:51.824Z,-1.11
2023-02-11T03:32:29.246Z,-1.13
2023-02-11T03:35:08.788Z,-1.12
2023-02-11T03:37:46.665Z,-1.11
2023-02-11T03:40:23.582Z,-1.14
2023-02-11T03:42:59.805Z,-1.15
2023-02-11T03:45:34.151Z,-1.15
2023-02-11T03:48:13.109Z,-1.13
2023-02-11T03:50:49.701Z,-1.14
2023-02-11T03:53:24.130Z,-1.14
2023-02-11T03:55:59.992Z,-1.16
2023-02-11T03:58:33.363Z,-1.17
2023-02-11T04:01:09.883Z,-1.17
2023-02-11T04:03:42.604Z,-1.16
2023-02-11T04:06:15.250Z,-1.15
2023-02-11T04:08:50.309Z,-1.14
2023-02-11T04:11:22.735Z,-1.13
2023-02-11T04:13:55.177Z,-1.10
2023-02-11T04:16:27.754Z,-1.08
2023-02-11T04:19:01.766Z,-1.09
2023-02-11T04:21:34.702Z,-1.08
2023-02-11T04:24:07.431Z,-1.08
2023-02-11T04:26:39.880Z,-1.07
2023-02-11T04:29:12.320Z,-1.06
2023-02-11T04:31:44.835Z,-1.04
2023-02-11T04:34:17.505Z,-1.03
2023-02-11T04:36:50.147Z,-1.02
2023-02-11T04:39:22.788Z,-1.00
2023-02-11T04:41:55.309Z,-0.97
2023-02-11T04:44:28.332Z,-0.94
2023-02-11T04:47:00.849Z,-0.93
2023-02-11T04:49:33.344Z,-0.90
2023-02-11T04:52:06.600Z,-0.87
2023-02-11T04:54:39.450Z,-0.84
2023-02-11T04:57:11.922Z,-0.84
2023-02-11T04:59:44.553Z,-0.83
2023-02-11T05:02:17.162Z,-0.82
2023-02-11T05:04:49.602Z,-0.80
2023-02-11T05:07:22.090Z,-0.80
2023-02-11T05:09:54.555Z,-0.77
2023-02-11T05:12:27.116Z,-0.78
2023-02-11T05:14:59.764Z,-0.80
2023-02-11T05:17:32.326Z,-0.81
2023-02-11T05:20:08.593Z,-0.82
2023-02-11T05:22:41.115Z,-0.86
2023-02-11T05:25:13.884Z,-0.89
2023-02-11T05:27:46.377Z,-0.93
2023-02-11T05:30:19.057Z,-0.96
2023-02-11T05:32:51.978Z,-0.99
2023-02-11T05:35:24.922Z,-1.00
2023-02-11T05:37:57.462Z,-1.01
2023-02-11T05:40:30.438Z,-1.02
2023-02-11T05:43:02.843Z,-1.02
2023-02-11T05:45:35.415Z,-1.01
2023-02-11T05:48:08.700Z,-1.02
2023-02-11T05:50:41.680Z,-1.03
2023-02-11T05:53:14.947Z,-1.05
2023-02-11T05:55:48.240Z,-1.05
2023-02-11T05:58:20.919Z,-1.08
2023-02-11T06:00:53.360Z,-1.10
2023-02-11T06:03:26.079Z,-1.13
2023-02-11T06:05:58.719Z,-1.11
2023-02-11T06:08:31.463Z,-1.10
2023-02-11T06:11:04.000Z,-1.10
2023-02-11T06:13:36.573Z,-1.14
2023-02-11T06:16:10.163Z,-1.18
2023-02-11T06:18:43.187Z,-1.17
2023-02-11T06:21:16.121Z,-1.17
2023-02-11T06:23:49.327Z,-1.16
2023-02-11T06:26:26.030Z,-1.16
2023-02-11T06:29:00.812Z,-1.14
2023-02-11T06:31:33.490Z,-1.12
2023-02-11T06:34:06.292Z,-1.11
2023-02-11T06:36:40.081Z,-1.08
2023-02-11T06:39:13.766Z,-1.06
2023-02-11T06:41:46.283Z,-1.03
2023-02-11T06:44:18.804Z,-1.00
2023-02-11T06:46:51.569Z,-1.00
2023-02-11T06:49:24.179Z,-0.99
2023-02-11T06:51:56.753Z,-0.96
2023-02-11T06:54:29.379Z,-0.93
2023-02-11T06:57:05.893Z,-0.92
2023-02-11T06:59:38.869Z,-0.89
2023-02-11T07:02:12.078Z,-0.86
2023-02-11T07:04:44.690Z,-0.85
2023-02-11T07:07:17.201Z,-0.81
2023-02-11T07:09:49.797Z,-0.82
2023-02-11T07:12:22.416Z,-0.80
2023-02-11T07:14:55.026Z,-0.76
2023-02-11T07:17:27.619Z,-0.72
2023-02-11T07:20:00.321Z,-0.67
2023-02-11T07:22:33.141Z,-0.63
2023-02-11T07:25:06.178Z,-0.58
2023-02-11T07:27:38.704Z,-0.53
2023-02-11T07:30:14.115Z,-0.46
2023-02-11T07:32:46.641Z,-0.41
2023-02-11T07:35:19.457Z,-0.34
2023-02-11T07:37:52.041Z,-0.22
2023-02-11T07:40:24.707Z,-0.14
2023-02-11T07:42:57.208Z,-0.04
2023-02-11T07:45:30.043Z,0.17
2023-02-11T07:48:02.531Z,0.49
2023-02-11T07:50:35.090Z,0.70
2023-02-11T07:53:07.891Z,0.76
2023-02-11T07:55:40.731Z,0.75
2023-02-11T07:58:13.220Z,0.76
2023-02-11T08:00:46.223Z,0.75
2023-02-11T08:03:18.782Z,0.77
2023-02-11T08:05:51.925Z,0.78
2023-02-11T08:08:24.655Z,0.77
2023-02-11T08:10:57.255Z,0.79
2023-02-11T08:13:29.847Z,0.85
2023-02-11T08:16:05.697Z,0.92
2023-02-11T08:18:38.874Z,0.99
2023-02-11T08:21:12.288Z,1.09
2023-02-11T08:23:45.850Z,1.19
2023-02-11T08:26:24.565Z,1.24
2023-02-11T08:28:59.124Z,1.29
2023-02-11T08:31:34.842Z,1.37
2023-02-11T08:34:07.976Z,1.52
2023-02-11T08:36:43.515Z,1.66
2023-02-11T08:39:20.439Z,1.72
2023-02-11T08:41:56.919Z,1.74
2023-02-11T08:44:30.074Z,1.74
2023-02-11T08:47:02.574Z,1.81
2023-02-11T08:49:35.271Z,1.83
2023-02-11T08:52:07.937Z,1.79
2023-02-11T08:54:40.479Z,1.76
2023-02-11T08:57:13.397Z,1.77
2023-02-11T08:59:45.961Z,1.74
2023-02-11T09:02:19.255Z,1.78
2023-02-11T09:04:51.804Z,1.81
2023-02-11T09:07:24.409Z,1.84
2023-02-11T09:09:57.162Z,1.98
2023-02-11T09:12:29.599Z,2.12
2023-02-11T09:15:02.398Z,2.19
2023-02-11T09:17:34.909Z,2.25
2023-02-11T09:20:10.756Z,2.33
2023-02-11T09:22:43.369Z,2.44
2023-02-11T09:25:15.841Z,2.49
2023-02-11T09:27:48.625Z,2.51
2023-02-11T09:30:21.420Z,2.59
2023-02-11T09:32:54.072Z,2.61
2023-02-11T09:35:31.179Z,2.66
2023-02-11T09:38:03.667Z,2.68
2023-02-11T09:40:36.981Z,2.71
2023-02-11T09:43:13.249Z,2.88
2023-02-11T09:45:46.436Z,3.01
2023-02-11T09:48:23.065Z,3.01
2023-02-11T09:50:58.899Z,3.01
2023-02-11T09:53:34.085Z,3.03
2023-02-11T09:56:14.769Z,3.02
2023-02-11T09:58:48.398Z,2.99
2023-02-11T10:01:31.917Z,2.96
2023-02-11T10:04:11.344Z,2.94
2023-02-11T10:06:49.441Z,2.89
2023-02-11T10:09:35.890Z,2.89
2023-02-11T10:12:26.806Z,2.91
2023-02-11T10:15:23.504Z,2.95
2023-02-11T10:18:19.407Z,2.99
2023-02-11T10:21:03.300Z,3.10
2023-02-11T10:23:38.852Z,3.24
2023-02-11T10:26:17.292Z,3.33
2023-02-11T10:28:53.414Z,3.36
2023-02-11T10:31:35.533Z,3.29
2023-02-11T10:34:11.010Z,3.36
2023-02-11T10:36:52.619Z,3.45
2023-02-11T10:39:27.965Z,3.41
2023-02-11T10:42:06.688Z,3.36
2023-02-11T10:44:43.344Z,3.37
2023-02-11T10:47:21.945Z,3.45
2023-02-11T10:49:54.982Z,3.47
2023-02-11T10:52:30.716Z,3.44
2023-02-11T10:55:07.196Z,3.41
2023-02-11T10:57:45.009Z,3.43
2023-02-11T11:00:38.178Z,3.38
2023-02-11T11:03:20.909Z,3.29
2023-02-11T11:05:58.501Z,3.24
2023-02-11T11:08:43.720Z,3.24
2023-02-11T11:11:17.844Z,3.22
2023-02-11T11:14:00.119Z,3.23
2023-02-11T11:16:36.365Z,3.21
2023-02-11T11:19:26.067Z,3.16
2023-02-11T11:22:00.445Z,3.09
2023-02-11T11:24:41.715Z,3.08
2023-02-11T11:27:22.683Z,3.08
2023-02-11T11:29:57.362Z,3.04
2023-02-11T11:32:32.506Z,3.00
2023-02-11T11:35:09.698Z,2.95
2023-02-11T11:37:43.114Z,2.92
2023-02-11T11:40:26.173Z,2.93
2023-02-11T11:43:23.094Z,2.90
2023-02-11T11:46:02.937Z,2.93
2023-02-11T11:48:40.705Z,2.96
2023-02-11T11:51:14.750Z,2.99
2023-02-11T11:53:54.690Z,3.02
2023-02-11T11:56:30.132Z,3.03
2023-02-11T11:59:12.195Z,3.04
2023-02-11T12:02:02.068Z,3.02
2023-02-11T12:04:48.789Z,2.96
2023-02-11T12:07:35.017Z,2.93
2023-02-11T12:11:01.792Z,2.89
2023-02-11T12:13:49.347Z,2.86
2023-02-11T12:16:35.118Z,2.88
2023-02-11T12:19:32.847Z,2.88
2023-02-11T12:22:13.392Z,2.89
2023-02-11T12:25:02.454Z,2.90
2023-02-11T12:27:49.585Z,2.87
2023-02-11T12:30:46.305Z,2.86
2023-02-11T12:33:30.903Z,2.85
2023-02-11T12:36:08.785Z,2.81
2023-02-11T12:38:59.256Z,2.81
2023-02-11T12:42:08.812Z,2.79
2023-02-11T12:44:48.086Z,2.81
2023-02-11T12:47:30.859Z,2.83
2023-02-11T12:50:20.233Z,2.82
2023-02-11T12:53:18.824Z,2.80
2023-02-11T12:55:57.911Z,2.78
2023-02-11T12:58:44.415Z,2.74
2023-02-11T13:01:23.504Z,2.68
2023-02-11T13:04:01.008Z,2.63
2023-02-11T13:06:39.050Z,2.62
2023-02-11T13:09:18.898Z,2.63
2023-02-11T13:11:55.750Z,2.64
2023-02-11T13:14:32.503Z,2.59
2023-02-11T13:17:16.390Z,2.58
2023-02-11T13:19:53.168Z,2.60
2023-02-11T13:22:31.753Z,2.64
2023-02-11T13:25:17.979Z,2.64
2023-02-11T13:27:59.101Z,2.60
2023-02-11T13:30:35.297Z,2.59
2023-02-11T13:33:34.125Z,2.59
2023-02-11T13:36:27.077Z,2.59
2023-02-11T13:39:08.041Z,2.55
2023-02-11T13:41:43.676Z,2.54
2023-02-11T13:44:36.118Z,2.54
2023-02-11T13:47:23.775Z,2.53
2023-02-11T13:49:56.639Z,2.53
2023-02-11T13:52:33.143Z,2.53
2023-02-11T13:55:21.601Z,2.53
2023-02-11T13:58:21.324Z,2.54
2023-02-11T14:00:54.772Z,2.52
2023-02-11T14:04:20.609Z,2.51
2023-02-11T14:07:47.478Z,2.53
2023-02-11T14:10:51.163Z,2.53
2023-02-11T14:13:29.917Z,2.54
2023-02-11T14:16:11.488Z,2.54
2023-02-11T14:19:01.924Z,2.55
2023-02-11T14:21:45.522Z,2.56
2023-02-11T14:24:49.527Z,2.58
2023-02-11T14:27:41.432Z,2.59
2023-02-11T14:30:36.481Z,2.60
2023-02-11T14:33:45.834Z,2.60
2023-02-11T14:36:36.874Z,2.61
2023-02-11T14:39:20.404Z,2.61
2023-02-11T14:41:53.643Z,2.63
2023-02-11T14:44:29.190Z,2.66
2023-02-11T14:47:02.015Z,2.66
2023-02-11T14:49:37.847Z,2.65
2023-02-11T14:52:29.852Z,2.66
2023-02-11T14:55:17.752Z,2.66
2023-02-11T14:58:05.862Z,2.68
2023-02-11T15:00:48.109Z,2.70
2023-02-11T15:03:38.862Z,2.69
2023-02-11T15:06:18.472Z,2.69
2023-02-11T15:08:56.547Z,2.68
2023-02-11T15:11:32.108Z,2.68
2023-02-11T15:14:12.825Z,2.69
2023-02-11T15:16:45.000Z,2.69
2023-02-11T15:19:26.795Z,2.69
2023-02-11T15:22:00.593Z,2.71
2023-02-11T15:24:36.045Z,2.72
2023-02-11T15:27:18.596Z,2.74
2023-02-11T15:29:51.701Z,2.74
2023-02-11T15:32:26.305Z,2.74
2023-02-11T15:34:58.756Z,2.74
2023-02-11T15:37:32.423Z,2.74
2023-02-11T15:40:13.501Z,2.75
2023-02-11T15:42:58.513Z,2.76
2023-02-11T15:45:34.471Z,2.76
2023-02-11T15:48:14.417Z,2.76
2023-02-11T15:50:54.777Z,2.78
2023-02-11T15:53:34.099Z,2.79
2023-02-11T15:56:13.157Z,2.79
2023-02-11T15:58:48.679Z,2.78
2023-02-11T16:01:31.800Z,2.78
2023-02-11T16:04:07.425Z,2.78
2023-02-11T16:06:41.474Z,2.80
2023-02-11T16:09:32.929Z,2.81
2023-02-11T16:12:22.753Z,2.85
2023-02-11T16:14:56.697Z,2.87
2023-02-11T16:17:30.462Z,2.91
2023-02-11T16:20:05.944Z,2.92
2023-02-11T16:22:41.394Z,2.94
2023-02-11T16:25:25.529Z,2.96
2023-02-11T16:27:59.339Z,2.96
2023-02-11T16:30:39.894Z,2.96
2023-02-11T16:33:11.933Z,2.96
2023-02-11T16:35:47.819Z,2.98
2023-02-11T16:38:21.519Z,2.98
2023-02-11T16:40:54.305Z,2.98
2023-02-11T16:43:26.854Z,3.01
2023-02-11T16:46:00.820Z,3.01
2023-02-11T16:48:36.351Z,3.02
2023-02-11T16:51:11.993Z,3.04
2023-02-11T16:53:44.730Z,3.05
2023-02-11T16:56:20.018Z,3.06
2023-02-11T16:58:55.595Z,3.08
2023-02-11T17:01:28.950Z,3.08
2023-02-11T17:04:02.255Z,3.09
2023-02-11T17:06:36.710Z,3.08
2023-02-11T17:09:17.389Z,3.08
2023-02-11T17:11:49.977Z,3.07
2023-02-11T17:14:23.061Z,3.08
2023-02-11T17:16:56.467Z,3.09
2023-02-11T17:19:29.214Z,3.09
2023-02-11T17:22:05.025Z,3.10
2023-02-11T17:24:40.592Z,3.11
2023-02-11T17:27:16.459Z,3.14
2023-02-11T17:29:49.091Z,3.13
2023-02-11T17:32:21.975Z,3.13
2023-02-11T17:34:56.099Z,3.14
2023-02-11T17:37:29.318Z,3.14
2023-02-11T17:40:05.123Z,3.15
2023-02-11T17:42:37.662Z,3.15
2023-02-11T17:45:13.260Z,3.16
2023-02-11T17:47:46.213Z,3.17
2023-02-11T17:50:19.421Z,3.18
2023-02-11T17:52:51.999Z,3.18
2023-02-11T17:55:25.715Z,3.19
2023-02-11T17:57:58.402Z,3.18
2023-02-11T18:00:31.348Z,3.18
2023-02-11T18:03:03.851Z,3.19
2023-02-11T18:05:41.335Z,3.18
2023-02-11T18:08:16.164Z,3.20
2023-02-11T18:10:48.845Z,3.20
2023-02-11T18:13:21.422Z,3.20
2023-02-11T18:15:54.689Z,3.20
2023-02-11T18:18:32.803Z,3.22
2023-02-11T18:21:08.630Z,3.22
2023-02-11T18:23:44.115Z,3.24
2023-02-11T18:26:25.838Z,3.25
2023-02-11T18:29:00.586Z,3.27
2023-02-11T18:31:36.772Z,3.26
2023-02-11T18:34:11.760Z,3.24
2023-02-11T18:36:44.605Z,3.25
2023-02-11T18:39:18.729Z,3.27
2023-02-11T18:41:54.622Z,3.29
2023-02-11T18:44:27.884Z,3.29
2023-02-11T18:47:01.619Z,3.29
2023-02-11T18:49:36.553Z,3.29
2023-02-11T18:52:09.454Z,3.30
2023-02-11T18:54:44.606Z,3.30
2023-02-11T18:57:20.413Z,3.30
2023-02-11T18:59:53.163Z,3.32
2023-02-11T19:02:26.374Z,3.33
2023-02-11T19:04:59.649Z,3.32
2023-02-11T19:07:34.734Z,3.31
2023-02-11T19:10:09.545Z,3.31
2023-02-11T19:12:42.058Z,3.31
2023-02-11T19:15:15.240Z,3.32
2023-02-11T19:17:47.979Z,3.34
2023-02-11T19:20:21.102Z,3.34
2023-02-11T19:22:53.725Z,3.35
2023-02-11T19:25:26.329Z,3.35
2023-02-11T19:27:58.795Z,3.38
2023-02-11T19:30:31.397Z,3.37
2023-02-11T19:33:03.775Z,3.39
2023-02-11T19:35:37.968Z,3.39
2023-02-11T19:38:10.448Z,3.40
2023-02-11T19:43:57.098Z,3.46
2023-02-11T19:46:31.578Z,3.43
2023-02-11T19:49:04.880Z,3.43
2023-02-11T19:51:39.306Z,3.43
2023-02-11T19:54:11.664Z,3.43
2023-02-11T19:56:44.879Z,3.44
2023-02-11T19:59:17.887Z,3.45
2023-02-11T20:01:50.569Z,3.46
2023-02-11T20:04:24.761Z,3.48
2023-02-11T20:06:56.963Z,3.50
2023-02-11T20:09:31.309Z,3.52
2023-02-11T20:12:04.011Z,3.54
2023-02-11T20:14:36.265Z,3.56
2023-02-11T20:17:08.630Z,3.55
2023-02-11T20:19:40.859Z,3.57
2023-02-11T20:22:13.730Z,3.59
2023-02-11T20:24:46.109Z,3.60
2023-02-11T20:27:20.025Z,3.64
2023-02-11T20:29:52.599Z,3.66
2023-02-11T20:32:24.865Z,3.67
2023-02-11T20:34:57.182Z,3.68
2023-02-11T20:37:29.354Z,3.69
2023-02-11T20:40:03.962Z,3.70
2023-02-11T20:42:36.159Z,3.70
2023-02-11T20:45:09.214Z,3.71
2023-02-11T20:47:42.559Z,3.72
2023-02-11T20:50:15.371Z,3.74
2023-02-11T20:52:48.528Z,3.77
2023-02-11T20:55:20.739Z,3.79
2023-02-11T20:57:55.000Z,3.80
2023-02-11T21:00:27.536Z,3.82
2023-02-11T21:03:00.269Z,3.83
2023-02-11T21:05:34.544Z,3.84
2023-02-11T21:08:07.001Z,3.84
2023-02-11T21:10:39.293Z,3.85
2023-02-11T21:13:11.493Z,3.86
2023-02-11T21:15:43.759Z,3.87
2023-02-11T21:18:16.040Z,3.87
2023-02-11T21:20:48.236Z,3.87
2023-02-11T21:23:20.527Z,3.88
2023-02-11T21:25:54.488Z,3.87
2023-02-11T21:28:27.557Z,3.86
2023-02-11T21:31:00.429Z,3.87
2023-02-11T21:33:34.789Z,3.87
2023-02-11T21:36:08.831Z,3.87
2023-02-11T21:38:41.612Z,3.86
2023-02-11T21:41:16.740Z,3.86
2023-02-11T21:43:49.169Z,3.86
2023-02-11T21:46:22.310Z,3.85
2023-02-11T21:48:54.573Z,3.85
2023-02-11T21:51:28.885Z,3.84
2023-02-11T21:54:02.969Z,3.84
2023-02-11T21:56:35.621Z,3.85
2023-02-11T21:59:08.008Z,3.86
2023-02-11T22:01:40.857Z,3.86
2023-02-11T22:04:14.189Z,3.86
2023-02-11T22:06:46.428Z,3.84
2023-02-11T22:09:18.763Z,3.84
2023-02-11T22:11:51.067Z,3.84
2023-02-11T22:14:23.516Z,3.83
2023-02-11T22:16:55.920Z,3.83
2023-02-11T22:19:28.830Z,3.83
2023-02-11T22:22:01.122Z,3.84
2023-02-11T22:24:33.501Z,3.86
2023-02-11T22:27:05.866Z,3.86
2023-02-11T22:29:38.572Z,3.86
2023-02-11T22:32:11.484Z,3.86
2023-02-11T22:34:43.993Z,3.87
2023-02-11T22:37:16.583Z,3.88
2023-02-11T22:39:49.247Z,3.88
2023-02-11T22:42:22.030Z,3.88
2023-02-11T22:44:58.111Z,3.88
2023-02-11T22:47:34.304Z,3.89
2023-02-11T22:53:17.461Z,3.94
2023-02-11T22:55:50.010Z,3.93
2023-02-11T22:58:26.976Z,3.94
2023-02-11T23:00:59.980Z,3.95
2023-02-11T23:03:38.662Z,3.96
2023-02-11T23:06:11.698Z,3.95
2023-02-11T23:08:45.091Z,3.98
2023-02-11T23:11:22.732Z,3.97
2023-02-11T23:13:56.176Z,3.97
2023-02-11T23:16:30.936Z,3.97
2023-02-11T23:19:05.160Z,3.98
2023-02-11T23:24:50.403Z,4.01
2023-02-11T23:27:22.687Z,4.00
2023-02-11T23:29:58.408Z,4.01
2023-02-11T23:32:30.737Z,4.01
2023-02-11T23:35:06.853Z,4.01
2023-02-11T23:37:39.384Z,4.01
2023-02-11T23:40:14.260Z,4.01
2023-02-11T23:42:47.795Z,4.01
2023-02-11T23:45:20.454Z,4.01
2023-02-11T23:47:53.412Z,4.00
2023-02-11T23:50:29.025Z,3.98
2023-02-11T23:53:01.706Z,3.98
2023-02-11T23:55:39.990Z,3.97
2023-02-11T23:58:13.143Z,3.97
